Terminal Aerodrome Forecast
Issued by NWS Topeka, KS

Home | Current Version | Previous Version | Graphics & Text | Print | Product List | Glossary On
Versions: 1 2 3 4 5 6 7 8 9 10 11 12
337
FTUS43 KTOP 240520
TAFTOP
TAF
KTOP 240520Z 2406/2506 14006KT P6SM FEW250
     FM241500 17010KT P6SM FEW080=

USA.gov is the U.S. government's official web portal to all federal, state and local government web resources and services.